Time;durP1;ratioP1;P1;durP2;ratioP2;P2;SDS_P1;SDS_P2;PMS_P1;PMS_P2;Temp;Humidity;BMP_temperature;BMP_pressure;BME280_temperature;BME280_humidity;BME280_pressure;Samples;Min_cycle;Max_cycle;Signal;HPM_P1;HPM_P2
2021/07/10 00:00:20;;;;;;;14.60;11.10;;;;;;;;;;5034489;28;20128;-43
2021/07/10 00:02:47;;;;;;;10.93;9.77;;;;;;;;;;5031539;28;20075;-43
2021/07/10 00:05:14;;;;;;;11.65;10.38;;;;;;;;;;5032956;28;20046;-44
2021/07/10 00:07:42;;;;;;;12.63;11.32;;;;;;;;;;5033775;28;20049;-43
2021/07/10 00:10:13;;;;;;;13.55;12.13;;;;;;;;;;5034025;28;20429;-44
2021/07/10 00:12:40;;;;;;;12.60;10.45;;;;;;;;;;5031663;28;20132;-45
2021/07/10 00:15:09;;;;;;;11.68;9.60;;;;;;;;;;5033515;28;20442;-43
2021/07/10 00:17:35;;;;;;;11.70;9.73;;;;;;;;;;5033654;28;20041;-45
2021/07/10 00:20:03;;;;;;;13.27;10.55;;;;;;;;;;5032260;28;20046;-46
2021/07/10 00:22:30;;;;;;;11.70;10.38;;;;;;;;;;5032555;28;20037;-46
2021/07/10 00:24:57;;;;;;;12.02;10.65;;;;;;;;;;5032275;28;20406;-45
2021/07/10 00:27:24;;;;;;;12.32;10.60;;;;;;;;;;5032766;28;20128;-45
2021/07/10 00:29:50;;;;;;;12.18;10.85;;;;;;;;;;5032032;28;20133;-46
2021/07/10 00:32:17;;;;;;;11.38;10.00;;;;;;;;;;5021455;28;20480;-43
2021/07/10 00:34:44;;;;;;;14.38;10.10;;;;;;;;;;5013418;28;20046;-47
2021/07/10 00:37:11;;;;;;;12.00;10.30;;;;;;;;;;5013500;28;20054;-46
2021/07/10 00:39:38;;;;;;;13.18;10.63;;;;;;;;;;5013930;28;20062;-45
2021/07/10 00:42:04;;;;;;;12.77;11.02;;;;;;;;;;5012457;28;20054;-47
2021/07/10 00:44:31;;;;;;;14.02;12.27;;;;;;;;;;5013490;28;20147;-45
2021/07/10 00:46:58;;;;;;;14.73;12.30;;;;;;;;;;5013072;28;20125;-45
2021/07/10 00:49:25;;;;;;;11.10;9.93;;;;;;;;;;5020029;28;20140;-45
2021/07/10 00:51:51;;;;;;;11.00;9.55;;;;;;;;;;5033425;28;20064;-48
2021/07/10 00:54:18;;;;;;;10.93;9.82;;;;;;;;;;5031747;28;20037;-45
2021/07/10 00:56:45;;;;;;;13.05;10.45;;;;;;;;;;5031897;28;20101;-44
2021/07/10 00:59:13;;;;;;;12.18;10.88;;;;;;;;;;5032716;28;20120;-47
2021/07/10 01:01:40;;;;;;;11.70;10.20;;;;;;;;;;5029291;28;20164;-44
2021/07/10 01:04:07;;;;;;;10.15;9.05;;;;;;;;;;5012194;28;20042;-46
2021/07/10 01:06:34;;;;;;;13.57;9.25;;;;;;;;;;5013056;28;20056;-46
2021/07/10 01:09:02;;;;;;;10.70;9.70;;;;;;;;;;5012934;28;20237;-47
2021/07/10 01:11:28;;;;;;;14.30;11.40;;;;;;;;;;5011055;28;20041;-45
2021/07/10 01:13:55;;;;;;;14.70;11.63;;;;;;;;;;5011069;28;20065;-45
2021/07/10 01:16:22;;;;;;;18.25;12.43;;;;;;;;;;5012598;28;20046;-45
2021/07/10 01:18:49;;;;;;;13.68;11.35;;;;;;;;;;5012122;28;20071;-43
2021/07/10 01:21:16;;;;;;;12.57;10.73;;;;;;;;;;5012682;28;20128;-44
2021/07/10 01:23:43;;;;;;;14.45;11.38;;;;;;;;;;5019148;28;20096;-45
2021/07/10 01:26:10;;;;;;;14.35;11.68;;;;;;;;;;5032480;28;20085;-44
2021/07/10 01:28:36;;;;;;;13.55;10.85;;;;;;;;;;5032076;28;20045;-43
2021/07/10 01:31:04;;;;;;;13.65;12.25;;;;;;;;;;5028234;28;20030;-45
2021/07/10 01:33:31;;;;;;;14.07;11.57;;;;;;;;;;5011869;28;20076;-43
2021/07/10 01:35:59;;;;;;;14.05;12.50;;;;;;;;;;5012522;28;20058;-43
2021/07/10 01:38:26;;;;;;;13.10;11.70;;;;;;;;;;5010775;28;20808;-43
2021/07/10 01:40:52;;;;;;;15.45;11.85;;;;;;;;;;5010986;28;20037;-43
2021/07/10 01:43:19;;;;;;;14.63;11.93;;;;;;;;;;5011637;28;20041;-43
2021/07/10 01:45:46;;;;;;;15.88;12.00;;;;;;;;;;5011205;28;20147;-42
2021/07/10 01:48:13;;;;;;;13.10;11.68;;;;;;;;;;5012472;28;20100;-44
2021/07/10 01:50:40;;;;;;;11.50;10.15;;;;;;;;;;5017046;28;20072;-43
2021/07/10 01:53:09;;;;;;;9.52;8.55;;;;;;;;;;5025827;28;20046;-47
2021/07/10 01:55:36;;;;;;;11.57;10.38;;;;;;;;;;5012273;28;20108;-46
2021/07/10 01:58:03;;;;;;;13.18;9.73;;;;;;;;;;5012356;28;20057;-45
2021/07/10 02:00:31;;;;;;;12.88;10.43;;;;;;;;;;5011886;28;20128;-44
2021/07/10 02:02:59;;;;;;;12.88;11.00;;;;;;;;;;5030354;28;20128;-45
2021/07/10 02:05:26;;;;;;;14.02;11.02;;;;;;;;;;5031575;28;20056;-47
2021/07/10 02:07:53;;;;;;;12.45;11.15;;;;;;;;;;5031800;28;20482;-47
2021/07/10 02:10:21;;;;;;;14.85;11.00;;;;;;;;;;5016862;28;20140;-43
2021/07/10 02:12:49;;;;;;;13.65;11.32;;;;;;;;;;5011561;28;20044;-43
2021/07/10 02:15:16;;;;;;;12.95;10.65;;;;;;;;;;5011848;28;20118;-44
2021/07/10 02:17:44;;;;;;;11.73;10.52;;;;;;;;;;5010980;28;20065;-47
2021/07/10 02:20:16;;;;;;;12.70;10.45;;;;;;;;;;5012016;28;20045;-45
2021/07/10 02:22:43;;;;;;;13.23;11.50;;;;;;;;;;5010695;28;20046;-45
2021/07/10 02:25:11;;;;;;;12.35;10.20;;;;;;;;;;5011515;28;20034;-43
2021/07/10 02:27:37;;;;;;;12.07;10.40;;;;;;;;;;5011600;28;20057;-44
2021/07/10 02:30:05;;;;;;;12.40;10.68;;;;;;;;;;5011537;28;20092;-46
2021/07/10 02:32:32;;;;;;;12.07;10.73;;;;;;;;;;5010447;28;20126;-44
2021/07/10 02:35:00;;;;;;;12.25;10.63;;;;;;;;;;5011417;28;20048;-44
2021/07/10 02:37:28;;;;;;;11.60;10.43;;;;;;;;;;5011626;28;20038;-45
2021/07/10 02:39:54;;;;;;;11.00;9.85;;;;;;;;;;5011219;28;20038;-43
2021/07/10 02:42:21;;;;;;;12.60;10.25;;;;;;;;;;5010837;28;20128;-43
2021/07/10 02:44:48;;;;;;;14.70;11.02;;;;;;;;;;5010451;28;20197;-43
2021/07/10 02:47:15;;;;;;;12.88;10.90;;;;;;;;;;5011198;28;20141;-43
2021/07/10 02:49:42;;;;;;;11.05;9.20;;;;;;;;;;5010931;28;20141;-44
2021/07/10 02:52:08;;;;;;;11.55;9.70;;;;;;;;;;5014530;28;20472;-45
2021/07/10 02:54:35;;;;;;;11.90;8.70;;;;;;;;;;5014601;28;20152;-45
2021/07/10 02:57:02;;;;;;;11.00;7.63;;;;;;;;;;5015489;28;20121;-45
2021/07/10 02:59:29;;;;;;;10.00;8.07;;;;;;;;;;5015238;28;20046;-46
2021/07/10 03:01:56;;;;;;;10.00;8.38;;;;;;;;;;5014192;28;20134;-44
2021/07/10 03:04:23;;;;;;;10.85;8.57;;;;;;;;;;5015382;28;20038;-46
2021/07/10 03:06:50;;;;;;;10.13;8.45;;;;;;;;;;5014986;28;20088;-44
2021/07/10 03:09:16;;;;;;;15.45;9.10;;;;;;;;;;5015100;28;20092;-46
2021/07/10 03:11:44;;;;;;;8.30;7.50;;;;;;;;;;5014302;28;20516;-43
2021/07/10 03:14:11;;;;;;;10.80;7.60;;;;;;;;;;5014898;28;20046;-44
2021/07/10 03:16:37;;;;;;;10.57;7.57;;;;;;;;;;5014978;28;20069;-45
2021/07/10 03:19:04;;;;;;;10.25;7.32;;;;;;;;;;5014915;28;20052;-44
2021/07/10 03:21:31;;;;;;;8.48;7.57;;;;;;;;;;5014504;28;20137;-45
2021/07/10 03:23:58;;;;;;;9.70;7.53;;;;;;;;;;5013814;28;20403;-45
2021/07/10 03:26:24;;;;;;;9.32;8.27;;;;;;;;;;5015049;28;20128;-44
2021/07/10 03:28:51;;;;;;;8.80;7.75;;;;;;;;;;5014723;28;20144;-44
2021/07/10 03:31:18;;;;;;;11.23;8.57;;;;;;;;;;5014254;28;20046;-44
2021/07/10 03:33:45;;;;;;;10.15;8.88;;;;;;;;;;5014157;28;20457;-44
2021/07/10 03:36:12;;;;;;;10.88;8.18;;;;;;;;;;5014531;28;20125;-45
2021/07/10 03:38:41;;;;;;;11.80;8.38;;;;;;;;;;5014637;28;20057;-44
2021/07/10 03:41:07;;;;;;;10.23;9.05;;;;;;;;;;5014300;28;20045;-43
2021/07/10 03:43:34;;;;;;;11.13;8.65;;;;;;;;;;5013645;28;20141;-45
2021/07/10 03:46:02;;;;;;;8.43;7.50;;;;;;;;;;5014534;28;20511;-43
2021/07/10 03:48:30;;;;;;;8.48;7.55;;;;;;;;;;5013620;28;20046;-44
2021/07/10 03:50:57;;;;;;;10.55;7.70;;;;;;;;;;5014436;28;20050;-45
2021/07/10 03:53:24;;;;;;;9.00;7.75;;;;;;;;;;5013299;28;20048;-44
2021/07/10 03:55:51;;;;;;;8.80;7.95;;;;;;;;;;5014423;28;20129;-44
2021/07/10 03:58:18;;;;;;;11.35;8.27;;;;;;;;;;5014521;28;20483;-44
2021/07/10 04:00:44;;;;;;;10.10;7.53;;;;;;;;;;5013847;28;20117;-43
2021/07/10 04:03:11;;;;;;;10.85;8.65;;;;;;;;;;5012361;28;20038;-45
2021/07/10 04:05:38;;;;;;;10.65;8.95;;;;;;;;;;5014082;28;20044;-44
2021/07/10 04:08:05;;;;;;;9.68;8.77;;;;;;;;;;5013890;28;20566;-44
2021/07/10 04:10:31;;;;;;;11.13;8.95;;;;;;;;;;5013491;28;20513;-42
2021/07/10 04:12:58;;;;;;;10.52;9.02;;;;;;;;;;5013595;28;20510;-42
2021/07/10 04:15:25;;;;;;;10.82;8.60;;;;;;;;;;5014200;28;20053;-44
2021/07/10 04:17:52;;;;;;;8.82;7.70;;;;;;;;;;5013401;28;20129;-45
2021/07/10 04:20:19;;;;;;;9.30;8.38;;;;;;;;;;5014245;28;20399;-43
2021/07/10 04:22:46;;;;;;;10.68;8.80;;;;;;;;;;5012665;28;20095;-44
2021/07/10 04:25:14;;;;;;;9.27;8.30;;;;;;;;;;5013766;28;20483;-42
2021/07/10 04:27:43;;;;;;;10.18;8.80;;;;;;;;;;5013655;28;20056;-44
2021/07/10 04:30:11;;;;;;;10.10;8.98;;;;;;;;;;5028891;28;20052;-42
2021/07/10 04:32:38;;;;;;;10.70;8.38;;;;;;;;;;5013592;28;20042;-44
2021/07/10 04:35:05;;;;;;;11.57;8.85;;;;;;;;;;5033423;28;20041;-44
2021/07/10 04:37:32;;;;;;;8.20;7.32;;;;;;;;;;5033362;28;20388;-43
2021/07/10 04:39:59;;;;;;;9.70;7.63;;;;;;;;;;5033257;28;20414;-44
2021/07/10 04:42:30;;;;;;;8.93;6.70;;;;;;;;;;5024069;28;20085;-43
2021/07/10 04:44:56;;;;;;;8.00;7.20;;;;;;;;;;5013192;28;20073;-46
2021/07/10 04:47:23;;;;;;;8.75;7.47;;;;;;;;;;5013209;28;20045;-45
2021/07/10 04:49:50;;;;;;;8.40;7.47;;;;;;;;;;5007585;28;20543;-43
2021/07/10 04:52:17;;;;;;;9.07;6.90;;;;;;;;;;4992847;28;20129;-44
2021/07/10 04:54:44;;;;;;;8.23;7.43;;;;;;;;;;5009639;28;20109;-44
2021/07/10 04:57:10;;;;;;;7.80;6.70;;;;;;;;;;5012962;28;20444;-42
2021/07/10 04:59:37;;;;;;;8.10;6.93;;;;;;;;;;5013095;28;20064;-44
2021/07/10 05:02:04;;;;;;;8.82;7.18;;;;;;;;;;5021084;28;20132;-44
2021/07/10 05:04:31;;;;;;;8.18;7.38;;;;;;;;;;5032911;28;20041;-43
2021/07/10 05:06:58;;;;;;;8.85;7.43;;;;;;;;;;5032844;28;20486;-43
2021/07/10 05:09:24;;;;;;;9.82;8.00;;;;;;;;;;5031402;28;20073;-45
2021/07/10 05:11:51;;;;;;;10.90;7.68;;;;;;;;;;5032624;28;20553;-44
2021/07/10 05:14:18;;;;;;;9.07;7.63;;;;;;;;;;5032530;28;20037;-43
2021/07/10 05:16:45;;;;;;;9.55;7.55;;;;;;;;;;5032653;28;20048;-45
2021/07/10 05:19:11;;;;;;;10.02;6.90;;;;;;;;;;5024527;28;20084;-45
2021/07/10 05:21:38;;;;;;;7.80;7.10;;;;;;;;;;5012520;28;20132;-42
2021/07/10 05:24:05;;;;;;;9.98;7.22;;;;;;;;;;5022061;28;20132;-44
2021/07/10 05:26:32;;;;;;;8.48;7.38;;;;;;;;;;5032333;28;20056;-43
2021/07/10 05:28:59;;;;;;;8.32;6.60;;;;;;;;;;5032092;28;20105;-43
2021/07/10 05:31:25;;;;;;;8.50;7.60;;;;;;;;;;5031044;28;20132;-46
2021/07/10 05:33:52;;;;;;;7.70;7.00;;;;;;;;;;5015143;28;20495;-44
2021/07/10 05:36:19;;;;;;;8.00;6.90;;;;;;;;;;5012495;28;20515;-43
2021/07/10 05:38:46;;;;;;;7.88;6.88;;;;;;;;;;5012325;28;20038;-43
2021/07/10 05:41:13;;;;;;;8.43;7.13;;;;;;;;;;5024531;28;20133;-44
2021/07/10 05:43:39;;;;;;;7.88;7.05;;;;;;;;;;5031107;28;20499;-43
2021/07/10 05:46:06;;;;;;;7.65;6.95;;;;;;;;;;5032109;28;20128;-44
2021/07/10 05:48:33;;;;;;;10.13;7.13;;;;;;;;;;5031564;22;20418;-43
2021/07/10 05:51:00;;;;;;;9.77;7.20;;;;;;;;;;4998893;28;20046;-43
2021/07/10 05:53:26;;;;;;;9.20;7.22;;;;;;;;;;4990969;28;20518;-44
2021/07/10 05:55:53;;;;;;;10.65;8.32;;;;;;;;;;4991661;28;20049;-44
2021/07/10 05:58:20;;;;;;;9.52;8.50;;;;;;;;;;4991824;28;20065;-44
2021/07/10 06:00:47;;;;;;;10.68;8.65;;;;;;;;;;5006877;28;20050;-45
2021/07/10 06:03:13;;;;;;;10.73;9.63;;;;;;;;;;4990901;28;20495;-43
2021/07/10 06:05:40;;;;;;;11.25;8.60;;;;;;;;;;4991955;28;20048;-42
2021/07/10 06:08:07;;;;;;;9.75;8.73;;;;;;;;;;4991567;28;20042;-42
2021/07/10 06:10:34;;;;;;;10.82;9.10;;;;;;;;;;4991241;28;20038;-43
2021/07/10 06:13:00;;;;;;;10.93;9.82;;;;;;;;;;4990718;28;20483;-42
2021/07/10 06:15:27;;;;;;;10.57;9.48;;;;;;;;;;4991519;28;20074;-43
2021/07/10 06:17:54;;;;;;;10.93;9.75;;;;;;;;;;4991346;28;20042;-43
2021/07/10 06:20:22;;;;;;;15.23;10.93;;;;;;;;;;5010864;28;20081;-43
2021/07/10 06:22:50;;;;;;;10.77;9.68;;;;;;;;;;5009009;28;20046;-43
2021/07/10 06:25:18;;;;;;;14.43;9.48;;;;;;;;;;4989887;28;20069;-41
2021/07/10 06:27:49;;;;;;;11.85;10.32;;;;;;;;;;4991841;28;20129;-41
2021/07/10 06:30:17;;;;;;;12.27;9.45;;;;;;;;;;4990895;28;20527;-41
2021/07/10 06:32:44;;;;;;;10.55;9.38;;;;;;;;;;4990654;28;20495;-41
2021/07/10 06:35:11;;;;;;;10.60;9.18;;;;;;;;;;4991277;28;20038;-42
2021/07/10 06:37:38;;;;;;;10.10;8.73;;;;;;;;;;4991416;28;20406;-42
2021/07/10 06:40:05;;;;;;;10.20;7.65;;;;;;;;;;4991448;28;20411;-43
2021/07/10 06:42:32;;;;;;;11.05;7.95;;;;;;;;;;4990813;28;20073;-42
2021/07/10 06:44:59;;;;;;;10.45;8.57;;;;;;;;;;4991800;28;20057;-42
2021/07/10 06:47:26;;;;;;;9.85;7.70;;;;;;;;;;4991233;28;20533;-42
2021/07/10 06:49:54;;;;;;;12.57;9.90;;;;;;;;;;4991203;28;20125;-42
2021/07/10 06:52:25;;;;;;;12.05;9.32;;;;;;;;;;4990643;28;20109;-44
2021/07/10 06:54:52;;;;;;;12.13;8.60;;;;;;;;;;4989955;28;20488;-42
2021/07/10 06:57:19;;;;;;;9.55;7.43;;;;;;;;;;4991286;28;20043;-43
2021/07/10 06:59:46;;;;;;;10.40;8.30;;;;;;;;;;4991506;28;20636;-42
2021/07/10 07:02:12;;;;;;;10.57;8.57;;;;;;;;;;4990524;28;20157;-42
2021/07/10 07:04:39;;;;;;;9.88;8.45;;;;;;;;;;4989739;28;20046;-42
2021/07/10 07:07:06;;;;;;;9.00;8.10;;;;;;;;;;4990920;28;20048;-43
2021/07/10 07:09:33;;;;;;;9.80;8.55;;;;;;;;;;4991318;28;20053;-42
2021/07/10 07:12:00;;;;;;;9.30;8.30;;;;;;;;;;4990569;28;20361;-43
2021/07/10 07:14:27;;;;;;;8.93;7.75;;;;;;;;;;4990967;28;20052;-42
2021/07/10 07:16:58;;;;;;;9.00;8.10;;;;;;;;;;4991208;28;20130;-41
2021/07/10 07:19:30;;;;;;;9.10;8.20;;;;;;;;;;4990847;28;20121;-43
2021/07/10 07:21:57;;;;;;;9.98;8.50;;;;;;;;;;5003940;28;20137;-43
2021/07/10 07:24:23;;;;;;;11.88;8.77;;;;;;;;;;4990967;28;20066;-42
2021/07/10 07:26:50;;;;;;;9.60;8.60;;;;;;;;;;4991131;28;20066;-43
2021/07/10 07:29:17;;;;;;;9.13;8.10;;;;;;;;;;4989830;28;20050;-43
2021/07/10 07:31:44;;;;;;;10.75;8.30;;;;;;;;;;4990287;28;20443;-43
2021/07/10 07:34:11;;;;;;;11.38;8.50;;;;;;;;;;4990316;28;20034;-42
2021/07/10 07:36:39;;;;;;;9.18;8.20;;;;;;;;;;4989581;28;20074;-41
2021/07/10 07:39:06;;;;;;;9.65;8.65;;;;;;;;;;4993775;28;20093;-41
2021/07/10 07:41:36;;;;;;;10.60;8.63;;;;;;;;;;4994382;28;20129;-41
2021/07/10 07:44:03;;;;;;;9.27;8.15;;;;;;;;;;4993835;28;20050;-42
2021/07/10 07:46:30;;;;;;;9.55;8.55;;;;;;;;;;4994288;28;20089;-43
2021/07/10 07:48:57;;;;;;;10.00;8.50;;;;;;;;;;4994178;28;20041;-42
2021/07/10 07:51:24;;;;;;;9.13;7.70;;;;;;;;;;4993987;28;20403;-43
2021/07/10 07:53:51;;;;;;;9.43;8.18;;;;;;;;;;4993385;28;20042;-44
2021/07/10 07:56:18;;;;;;;8.18;7.32;;;;;;;;;;4994370;28;20488;-41
2021/07/10 07:58:45;;;;;;;10.15;8.63;;;;;;;;;;4994213;28;20129;-41
2021/07/10 08:01:12;;;;;;;9.13;8.10;;;;;;;;;;4993195;28;20051;-42
2021/07/10 08:03:39;;;;;;;8.95;7.20;;;;;;;;;;4992992;28;20096;-43
2021/07/10 08:06:06;;;;;;;9.82;8.82;;;;;;;;;;4994001;28;20165;-41
2021/07/10 08:08:36;;;;;;;8.95;7.65;;;;;;;;;;4994124;28;20061;-43
2021/07/10 08:11:04;;;;;;;9.45;7.53;;;;;;;;;;4992928;28;20094;-43
2021/07/10 08:13:32;;;;;;;8.10;7.13;;;;;;;;;;4991954;28;20076;-43
2021/07/10 08:16:00;;;;;;;9.55;8.25;;;;;;;;;;4993948;28;20042;-42
2021/07/10 08:18:27;;;;;;;7.03;6.32;;;;;;;;;;4992448;28;20550;-42
2021/07/10 08:20:53;;;;;;;7.53;6.80;;;;;;;;;;4993560;28;20121;-42
2021/07/10 08:23:20;;;;;;;9.38;6.85;;;;;;;;;;4993149;28;20080;-40
2021/07/10 08:25:47;;;;;;;9.45;8.05;;;;;;;;;;4993676;28;20056;-41
2021/07/10 08:28:23;;;;;;;10.05;8.10;;;;;;;;;;4993782;28;20054;-41
2021/07/10 08:30:50;;;;;;;10.10;7.22;;;;;;;;;;4992527;28;20085;-41
2021/07/10 08:33:17;;;;;;;9.32;7.25;;;;;;;;;;4992684;28;20057;-41
2021/07/10 08:35:43;;;;;;;11.30;7.72;;;;;;;;;;4993355;28;20129;-41
2021/07/10 08:38:10;;;;;;;9.35;7.55;;;;;;;;;;4993699;28;20093;-42
2021/07/10 08:40:37;;;;;;;10.55;8.00;;;;;;;;;;4993312;28;20160;-43
2021/07/10 08:43:04;;;;;;;8.65;7.80;;;;;;;;;;4992659;28;20125;-42
2021/07/10 08:45:31;;;;;;;11.02;7.75;;;;;;;;;;4993437;28;20464;-42
2021/07/10 08:47:59;;;;;;;8.07;7.15;;;;;;;;;;4992536;28;20137;-41
2021/07/10 08:50:26;;;;;;;9.88;7.13;;;;;;;;;;4991839;28;20056;-42
2021/07/10 08:52:53;;;;;;;9.70;7.50;;;;;;;;;;4992154;28;20046;-42
2021/07/10 08:55:20;;;;;;;9.98;8.50;;;;;;;;;;4993015;28;20041;-44
2021/07/10 08:57:47;;;;;;;9.48;8.48;;;;;;;;;;4993115;28;20042;-43
2021/07/10 09:00:15;;;;;;;11.60;8.38;;;;;;;;;;4992875;28;20072;-44
2021/07/10 09:02:43;;;;;;;11.23;7.75;;;;;;;;;;4992272;28;20072;-41
2021/07/10 09:05:11;;;;;;;9.02;7.80;;;;;;;;;;4991676;28;20121;-43
2021/07/10 09:07:58;;;;;;;9.88;8.15;;;;;;;;;;4992799;28;20070;-42
2021/07/10 09:10:37;;;;;;;11.63;8.23;;;;;;;;;;4985715;28;20224;-42
2021/07/10 09:13:04;;;;;;;8.32;7.28;;;;;;;;;;5006180;28;20049;-44
2021/07/10 09:15:32;;;;;;;8.05;7.25;;;;;;;;;;4992692;28;20085;-42
2021/07/10 09:18:00;;;;;;;10.45;7.55;;;;;;;;;;4992325;28;20047;-43
2021/07/10 09:20:28;;;;;;;8.38;7.35;;;;;;;;;;4992303;28;20042;-43
2021/07/10 09:22:55;;;;;;;9.25;7.60;;;;;;;;;;4991740;28;20073;-44
2021/07/10 09:25:24;;;;;;;8.63;7.68;;;;;;;;;;4992671;28;20077;-41
2021/07/10 09:27:52;;;;;;;9.52;7.57;;;;;;;;;;4992761;28;20050;-45
2021/07/10 09:30:33;;;;;;;8.95;7.97;;;;;;;;;;4992654;28;20090;-42
2021/07/10 09:33:19;;;;;;;9.55;8.43;;;;;;;;;;4991501;28;20074;-42
2021/07/10 09:35:49;;;;;;;9.32;8.23;;;;;;;;;;4992489;28;20089;-43
2021/07/10 09:38:23;;;;;;;9.45;8.10;;;;;;;;;;4992271;28;20038;-42
2021/07/10 09:41:02;;;;;;;9.48;8.48;;;;;;;;;;4991942;28;20066;-42
2021/07/10 09:43:30;;;;;;;9.30;7.60;;;;;;;;;;4991716;28;20149;-44
2021/07/10 09:45:57;;;;;;;9.48;7.63;;;;;;;;;;4992206;28;20050;-44
2021/07/10 09:48:26;;;;;;;7.90;7.10;;;;;;;;;;4992059;28;20078;-42
2021/07/10 09:51:12;;;;;;;8.63;7.72;;;;;;;;;;4991914;28;20034;-43
2021/07/10 09:53:39;;;;;;;13.38;8.65;;;;;;;;;;4991016;28;20042;-41
2021/07/10 09:56:10;;;;;;;8.38;7.53;;;;;;;;;;4992020;28;20073;-43
2021/07/10 09:58:38;;;;;;;10.27;7.78;;;;;;;;;;4992082;28;20042;-43
2021/07/10 10:01:24;;;;;;;8.35;7.50;;;;;;;;;;4991443;28;20116;-42
2021/07/10 10:03:51;;;;;;;7.90;7.20;;;;;;;;;;4991196;28;20053;-41
2021/07/10 10:06:34;;;;;;;7.80;6.10;;;;;;;;;;4991938;28;20050;-43
2021/07/10 10:09:03;;;;;;;7.13;5.97;;;;;;;;;;4990522;28;20138;-42
2021/07/10 10:11:49;;;;;;;8.88;6.40;;;;;;;;;;4991028;28;20146;-42
2021/07/10 10:14:17;;;;;;;10.38;6.75;;;;;;;;;;4991532;28;20538;-42
2021/07/10 10:16:48;;;;;;;6.80;5.82;;;;;;;;;;4991739;28;20389;-42
2021/07/10 10:19:16;;;;;;;7.03;6.20;;;;;;;;;;4991548;28;20119;-41
2021/07/10 10:21:45;;;;;;;7.00;5.72;;;;;;;;;;4991996;28;20046;-42
2021/07/10 10:24:13;;;;;;;6.72;5.72;;;;;;;;;;4995704;28;20125;-44
2021/07/10 10:26:40;;;;;;;8.07;5.70;;;;;;;;;;4998991;28;20052;-42
2021/07/10 10:29:08;;;;;;;6.07;5.30;;;;;;;;;;5017428;28;20060;-44
2021/07/10 10:31:36;;;;;;;6.70;5.28;;;;;;;;;;4991791;28;20042;-45
2021/07/10 10:34:04;;;;;;;5.80;5.20;;;;;;;;;;4998313;28;20463;-43
2021/07/10 10:36:30;;;;;;;7.15;5.43;;;;;;;;;;5010174;28;20077;-43
2021/07/10 10:38:57;;;;;;;6.53;5.80;;;;;;;;;;4996117;28;20496;-43
2021/07/10 10:41:24;;;;;;;6.30;5.38;;;;;;;;;;4997465;28;20049;-45
2021/07/10 10:43:53;;;;;;;7.72;6.18;;;;;;;;;;5007672;28;20049;-43
2021/07/10 10:46:23;;;;;;;8.48;6.25;;;;;;;;;;5006496;28;20473;-43
2021/07/10 10:48:51;;;;;;;7.07;6.13;;;;;;;;;;4990998;28;20500;-43
2021/07/10 10:51:34;;;;;;;6.70;5.68;;;;;;;;;;4990110;28;20496;-43
2021/07/10 10:54:23;;;;;;;7.20;6.25;;;;;;;;;;4997352;28;20049;-43
2021/07/10 10:56:50;;;;;;;8.73;7.03;;;;;;;;;;4995445;28;20480;-53
2021/07/10 10:59:36;;;;;;;8.45;7.35;;;;;;;;;;4992611;28;20083;-44
2021/07/10 11:02:23;;;;;;;7.90;7.10;;;;;;;;;;4991911;28;20073;-42
2021/07/10 11:04:56;;;;;;;7.28;6.57;;;;;;;;;;5000675;28;20053;-43
2021/07/10 11:07:23;;;;;;;7.15;6.45;;;;;;;;;;4994112;28;20591;-42
2021/07/10 11:10:02;;;;;;;6.90;5.85;;;;;;;;;;5001531;28;20140;-43
2021/07/10 11:12:48;;;;;;;6.88;6.18;;;;;;;;;;5007500;28;20434;-43
2021/07/10 11:15:34;;;;;;;6.55;5.80;;;;;;;;;;5014851;28;20073;-45
2021/07/10 11:18:02;;;;;;;7.30;5.97;;;;;;;;;;4993866;28;20492;-45
2021/07/10 11:20:38;;;;;;;6.45;5.85;;;;;;;;;;4995583;28;20049;-44
2021/07/10 11:23:05;;;;;;;7.32;5.65;;;;;;;;;;5001357;28;20330;-46
2021/07/10 11:25:50;;;;;;;12.10;5.72;;;;;;;;;;5000201;28;20151;-44
2021/07/10 11:28:17;;;;;;;6.10;5.50;;;;;;;;;;4995203;28;20056;-42
2021/07/10 11:30:46;;;;;;;7.95;5.72;;;;;;;;;;4996412;28;20054;-46
2021/07/10 11:33:13;;;;;;;6.18;5.50;;;;;;;;;;4994816;28;20109;-43
2021/07/10 11:35:44;;;;;;;7.70;6.13;;;;;;;;;;5009376;28;20106;-42
2021/07/10 11:38:29;;;;;;;6.47;5.25;;;;;;;;;;5014533;28;20522;-43
2021/07/10 11:41:03;;;;;;;5.72;5.13;;;;;;;;;;4996879;28;20044;-43
2021/07/10 11:43:37;;;;;;;6.05;5.00;;;;;;;;;;4994593;28;20046;-42
2021/07/10 11:46:04;;;;;;;8.88;5.53;;;;;;;;;;5014226;28;20136;-43
2021/07/10 11:48:43;;;;;;;5.18;4.68;;;;;;;;;;5034444;23;20088;-44
2021/07/10 11:51:10;;;;;;;6.63;5.10;;;;;;;;;;5023727;28;20120;-41
2021/07/10 11:53:38;;;;;;;6.32;4.50;;;;;;;;;;5011397;28;20116;-41
2021/07/10 11:56:04;;;;;;;5.35;4.80;;;;;;;;;;5012436;28;20042;-41
2021/07/10 11:58:32;;;;;;;5.68;5.07;;;;;;;;;;5010117;28;20052;-41
2021/07/10 12:01:00;;;;;;;6.07;4.70;;;;;;;;;;5002587;28;20073;-41
2021/07/10 12:03:27;;;;;;;5.70;4.50;;;;;;;;;;4986675;28;20050;-41
2021/07/10 12:05:55;;;;;;;5.13;4.63;;;;;;;;;;5008679;28;20054;-43
2021/07/10 12:08:22;;;;;;;4.75;4.20;;;;;;;;;;4997080;28;20073;-42
2021/07/10 12:10:50;;;;;;;5.63;4.38;;;;;;;;;;4983675;28;21387;-41
2021/07/10 12:13:18;;;;;;;7.68;4.40;;;;;;;;;;5002243;28;20132;-41
2021/07/10 12:15:48;;;;;;;5.45;4.30;;;;;;;;;;4999994;28;20070;-44
2021/07/10 12:18:15;;;;;;;5.50;4.30;;;;;;;;;;4995722;28;20045;-43
2021/07/10 12:20:44;;;;;;;4.82;4.30;;;;;;;;;;4979420;28;20057;-42
2021/07/10 12:23:18;;;;;;;5.55;4.22;;;;;;;;;;4993149;28;20161;-42
2021/07/10 12:25:51;;;;;;;8.88;4.10;;;;;;;;;;5002639;28;20053;-42
2021/07/10 12:28:32;;;;;;;4.93;4.03;;;;;;;;;;5009674;28;20042;-44
2021/07/10 12:31:00;;;;;;;4.32;3.90;;;;;;;;;;4994186;28;20554;-44
2021/07/10 12:33:27;;;;;;;5.05;3.65;;;;;;;;;;4981890;28;20126;-46
2021/07/10 12:36:04;;;;;;;4.15;3.47;;;;;;;;;;5005264;28;20054;-42
2021/07/10 12:38:31;;;;;;;5.03;4.25;;;;;;;;;;5008166;28;20049;-44
2021/07/10 12:41:17;;;;;;;5.32;4.30;;;;;;;;;;4996604;28;20081;-44
2021/07/10 12:43:43;;;;;;;5.25;3.85;;;;;;;;;;4997432;28;20487;-46
2021/07/10 12:46:52;;;;;;;4.63;3.72;;;;;;;;;;4999768;28;20138;-44
2021/07/10 12:49:19;;;;;;;6.40;3.88;;;;;;;;;;4992742;28;20061;-43
2021/07/10 12:51:46;;;;;;;5.65;3.90;;;;;;;;;;4988668;28;20046;-43
2021/07/10 12:54:35;;;;;;;7.10;4.28;;;;;;;;;;4992104;28;20069;-43
2021/07/10 12:57:18;;;;;;;5.05;3.90;;;;;;;;;;4993469;28;20073;-43
2021/07/10 13:00:03;;;;;;;6.10;4.40;;;;;;;;;;4993393;28;20042;-43
2021/07/10 13:02:31;;;;;;;7.03;4.30;;;;;;;;;;4991865;28;20436;-42
2021/07/10 13:05:02;;;;;;;5.18;3.67;;;;;;;;;;4994039;28;20074;-43
2021/07/10 13:07:31;;;;;;;4.03;3.63;;;;;;;;;;5000977;28;20050;-44
2021/07/10 13:09:58;;;;;;;4.40;3.67;;;;;;;;;;4994832;28;20512;-42
2021/07/10 13:13:01;;;;;;;5.00;4.18;;;;;;;;;;4989590;28;20492;-42
2021/07/10 13:15:30;;;;;;;4.80;4.13;;;;;;;;;;4965305;28;20047;-42
2021/07/10 13:18:04;;;;;;;4.65;3.80;;;;;;;;;;4987623;28;20323;-47
2021/07/10 13:20:31;;;;;;;4.13;3.72;;;;;;;;;;4986315;28;20069;-43
2021/07/10 13:22:58;;;;;;;3.90;3.35;;;;;;;;;;4989773;28;20050;-44
2021/07/10 13:25:33;;;;;;;7.00;3.95;;;;;;;;;;4986055;28;20506;-44
2021/07/10 13:28:20;;;;;;;4.00;3.50;;;;;;;;;;4992753;28;20066;-42
2021/07/10 13:30:47;;;;;;;6.22;3.72;;;;;;;;;;5004634;28;20403;-42
2021/07/10 13:33:14;;;;;;;4.15;3.65;;;;;;;;;;5009274;28;20049;-46
2021/07/10 13:35:40;;;;;;;5.18;3.95;;;;;;;;;;4996569;28;20046;-42
2021/07/10 13:38:14;;;;;;;4.30;3.83;;;;;;;;;;5001388;28;20042;-43
2021/07/10 13:40:41;;;;;;;4.38;3.42;;;;;;;;;;5006215;28;20062;-42
2021/07/10 13:43:07;;;;;;;4.55;3.75;;;;;;;;;;4992026;28;20492;-43
2021/07/10 13:45:34;;;;;;;4.50;3.63;;;;;;;;;;4996271;28;20038;-42
2021/07/10 13:48:08;;;;;;;4.88;3.83;;;;;;;;;;4995194;28;20229;-43
2021/07/10 13:50:34;;;;;;;4.45;3.60;;;;;;;;;;5000234;28;20042;-42
2021/07/10 13:53:14;;;;;;;4.80;3.60;;;;;;;;;;5000043;28;20132;-43
2021/07/10 13:55:43;;;;;;;5.15;3.50;;;;;;;;;;5000558;28;20042;-44
2021/07/10 13:58:27;;;;;;;4.18;3.78;;;;;;;;;;5000644;28;20066;-41
2021/07/10 14:00:54;;;;;;;6.13;3.92;;;;;;;;;;4997239;28;20133;-44
2021/07/10 14:03:21;;;;;;;3.72;3.33;;;;;;;;;;5009087;28;20125;-42
2021/07/10 14:05:48;;;;;;;7.18;3.97;;;;;;;;;;5000410;28;20057;-42
2021/07/10 14:08:17;;;;;;;5.68;3.63;;;;;;;;;;5000137;28;20027;-44
2021/07/10 14:10:50;;;;;;;5.68;3.80;;;;;;;;;;4998904;28;20065;-40
2021/07/10 14:13:19;;;;;;;6.60;3.75;;;;;;;;;;4991463;28;20372;-42
2021/07/10 14:15:47;;;;;;;5.05;3.60;;;;;;;;;;4995933;28;20560;-44
2021/07/10 14:18:14;;;;;;;6.22;4.13;;;;;;;;;;4989576;28;20070;-43
2021/07/10 14:20:42;;;;;;;4.25;3.70;;;;;;;;;;4992575;28;20053;-45
2021/07/10 14:23:21;;;;;;;5.57;3.72;;;;;;;;;;4991748;28;20042;-43
2021/07/10 14:25:47;;;;;;;5.32;3.42;;;;;;;;;;5000205;28;20180;-43
2021/07/10 14:28:14;;;;;;;5.47;3.97;;;;;;;;;;4990263;28;20038;-44
2021/07/10 14:30:41;;;;;;;5.32;3.63;;;;;;;;;;4995710;28;20046;-43
2021/07/10 14:33:08;;;;;;;4.13;3.72;;;;;;;;;;4990924;28;20053;-42
2021/07/10 14:35:35;;;;;;;6.30;3.78;;;;;;;;;;4999138;28;20400;-45
2021/07/10 14:38:03;;;;;;;5.55;3.42;;;;;;;;;;5011502;28;20044;-43
2021/07/10 14:40:31;;;;;;;3.63;3.33;;;;;;;;;;4993310;28;20069;-43
2021/07/10 14:42:58;;;;;;;4.28;3.78;;;;;;;;;;4991650;28;20046;-44
2021/07/10 14:45:25;;;;;;;4.75;3.67;;;;;;;;;;4993075;28;20113;-44